createdAt,value
2022-07-29T00:00:00.904Z,101034.82
2022-07-29T00:02:29.567Z,101029.68
2022-07-29T00:04:58.013Z,101023.84
2022-07-29T00:07:26.765Z,101026.02
2022-07-29T00:09:55.340Z,101024.77
2022-07-29T00:12:26.760Z,101024.61
2022-07-29T00:14:56.462Z,101022.39
2022-07-29T00:17:25.883Z,101018.44
2022-07-29T00:19:54.709Z,101013.91
2022-07-29T00:22:23.778Z,101010.45
2022-07-29T00:24:52.391Z,101014.92
2022-07-29T00:27:20.872Z,101018.77
2022-07-29T00:29:49.355Z,101021.70
2022-07-29T00:32:18.040Z,101022.13
2022-07-29T00:35:05.313Z,101016.98
2022-07-29T00:37:34.006Z,101014.23
2022-07-29T00:40:02.539Z,101014.00
2022-07-29T00:42:31.222Z,101009.51
2022-07-29T00:44:59.602Z,101006.23
2022-07-29T00:47:28.289Z,101008.23
2022-07-29T00:49:56.875Z,101009.44
2022-07-29T00:52:25.987Z,101012.53
2022-07-29T00:54:54.522Z,101012.58
2022-07-29T00:57:23.194Z,101018.95
2022-07-29T00:59:51.728Z,101019.98
2022-07-29T01:02:20.278Z,101022.48
2022-07-29T01:04:49.757Z,101024.39
2022-07-29T01:07:19.625Z,101021.35
2022-07-29T01:09:48.549Z,101021.84
2022-07-29T01:12:21.408Z,101016.61
2022-07-29T01:14:51.163Z,101023.27
2022-07-29T01:17:26.709Z,101021.73
2022-07-29T01:20:04.726Z,101021.02
2022-07-29T01:22:35.978Z,101015.41
2022-07-29T01:25:29.695Z,101015.16
2022-07-29T01:28:23.780Z,101025.87
2022-07-29T01:30:55.742Z,101024.01
2022-07-29T01:33:47.267Z,101022.68
2022-07-29T01:36:41.866Z,101026.17
2022-07-29T01:39:15.670Z,101024.86
2022-07-29T01:41:52.343Z,101022.52
2022-07-29T01:44:28.272Z,101021.32
2022-07-29T01:47:03.264Z,101016.58
2022-07-29T01:49:38.026Z,101017.67
2022-07-29T01:52:15.764Z,101013.64
2022-07-29T01:54:56.958Z,101014.35
2022-07-29T01:57:29.481Z,101012.05
2022-07-29T02:00:00.272Z,101011.27
2022-07-29T02:02:31.716Z,101014.36
2022-07-29T02:05:01.666Z,101010.12
2022-07-29T02:07:33.146Z,101012.44
2022-07-29T02:10:03.114Z,101011.83
2022-07-29T02:12:33.321Z,101009.33
2022-07-29T02:15:04.630Z,101008.64
2022-07-29T02:17:41.042Z,101006.14
2022-07-29T02:20:10.958Z,101011.63
2022-07-29T02:22:41.835Z,101012.14
2022-07-29T02:25:14.022Z,101014.71
2022-07-29T02:27:43.898Z,101019.27
2022-07-29T02:30:14.566Z,101018.25
2022-07-29T02:32:44.683Z,101023.16
2022-07-29T02:35:17.528Z,101021.00
2022-07-29T02:38:07.298Z,101016.91
2022-07-29T02:40:39.820Z,101020.30
2022-07-29T02:43:10.362Z,101021.40
2022-07-29T02:45:39.764Z,101017.44
2022-07-29T02:48:14.350Z,101019.19
2022-07-29T02:50:50.139Z,101027.67
2022-07-29T02:53:26.772Z,101029.36
2022-07-29T02:56:03.069Z,101029.64
2022-07-29T02:58:46.874Z,101027.05
2022-07-29T03:01:24.631Z,101026.77
2022-07-29T03:03:55.438Z,101029.70
2022-07-29T03:06:38.578Z,101028.50
2022-07-29T03:09:13.197Z,101033.35
2022-07-29T03:11:50.004Z,101031.71
2022-07-29T03:14:21.366Z,101031.45
2022-07-29T03:16:52.236Z,101034.09
2022-07-29T03:19:21.650Z,101039.05
2022-07-29T03:21:50.625Z,101039.52
2022-07-29T03:24:30.965Z,101041.04
2022-07-29T03:27:00.239Z,101039.27
2022-07-29T03:29:33.701Z,101040.77
2022-07-29T03:32:08.169Z,101045.89
2022-07-29T03:34:39.220Z,101041.39
2022-07-29T03:37:08.450Z,101043.27
2022-07-29T03:39:42.159Z,101039.56
2022-07-29T03:42:14.447Z,101039.02
2022-07-29T03:44:45.488Z,101041.41
2022-07-29T03:47:16.415Z,101044.48
2022-07-29T03:49:48.938Z,101047.60
2022-07-29T03:52:18.394Z,101054.12
2022-07-29T03:54:47.030Z,101054.87
2022-07-29T03:57:16.895Z,101052.05
2022-07-29T03:59:46.251Z,101046.69
2022-07-29T04:02:18.849Z,101048.94
2022-07-29T04:04:50.945Z,101048.55
2022-07-29T04:07:20.044Z,101047.11
2022-07-29T04:09:48.526Z,101045.89
2022-07-29T04:12:17.208Z,101053.32
2022-07-29T04:14:45.589Z,101053.59
2022-07-29T04:17:13.968Z,101055.86
2022-07-29T04:19:42.860Z,101056.02
2022-07-29T04:22:11.502Z,101058.33
2022-07-29T04:24:44.015Z,101059.59
2022-07-29T04:27:13.330Z,101063.20
2022-07-29T04:29:56.179Z,101065.02
2022-07-29T04:32:27.862Z,101069.24
2022-07-29T04:34:56.386Z,101070.05
2022-07-29T04:37:24.947Z,101072.41
2022-07-29T04:39:53.556Z,101073.22
2022-07-29T04:42:25.238Z,101074.73
2022-07-29T04:44:56.769Z,101075.05
2022-07-29T04:47:25.148Z,101074.94
2022-07-29T04:49:53.630Z,101076.85
2022-07-29T04:52:22.727Z,101080.79
2022-07-29T04:54:51.254Z,101083.52
2022-07-29T04:57:19.898Z,101084.38
2022-07-29T04:59:48.584Z,101078.69
2022-07-29T05:02:17.311Z,101078.72
2022-07-29T05:04:46.014Z,101074.98
2022-07-29T05:07:14.559Z,101073.63
2022-07-29T05:09:42.982Z,101074.67
2022-07-29T05:12:12.228Z,101070.92
2022-07-29T05:14:40.824Z,101072.94
2022-07-29T05:17:09.295Z,101074.92
2022-07-29T05:19:39.743Z,101075.03
2022-07-29T05:22:08.925Z,101075.72
2022-07-29T05:24:37.232Z,101077.07
2022-07-29T05:27:05.888Z,101077.15
2022-07-29T05:29:43.389Z,101076.52
2022-07-29T05:32:14.628Z,101082.19
2022-07-29T05:34:51.137Z,101083.44
2022-07-29T05:37:21.549Z,101086.36
2022-07-29T05:39:56.942Z,101085.08
2022-07-29T05:42:26.683Z,101087.05
2022-07-29T05:44:55.355Z,101091.24
2022-07-29T05:47:24.799Z,101093.84
2022-07-29T05:49:53.333Z,101095.15
2022-07-29T05:52:22.731Z,101090.91
2022-07-29T05:54:51.353Z,101091.98
2022-07-29T05:57:22.347Z,101088.48
2022-07-29T05:59:52.079Z,101087.15
2022-07-29T06:02:20.791Z,101087.11
2022-07-29T06:04:49.931Z,101083.82
2022-07-29T06:07:18.582Z,101081.27
2022-07-29T06:09:47.167Z,101079.40
2022-07-29T06:12:15.849Z,101078.52
2022-07-29T06:14:44.391Z,101077.68
2022-07-29T06:17:13.123Z,101076.14
2022-07-29T06:19:41.810Z,101075.64
2022-07-29T06:22:10.243Z,101074.64
2022-07-29T06:24:42.767Z,101077.40
2022-07-29T06:27:12.644Z,101075.27
2022-07-29T06:29:41.065Z,101072.20
2022-07-29T06:32:10.330Z,101072.13
2022-07-29T06:34:39.052Z,101073.46
2022-07-29T06:37:15.629Z,101075.95
2022-07-29T06:39:44.620Z,101076.94
2022-07-29T06:42:13.309Z,101079.14
2022-07-29T06:44:44.098Z,101079.52
2022-07-29T06:47:12.730Z,101083.25
2022-07-29T06:49:41.214Z,101078.84
2022-07-29T06:52:09.901Z,101076.76
2022-07-29T06:54:39.861Z,101072.89
2022-07-29T06:57:08.402Z,101074.63
2022-07-29T06:59:36.891Z,101070.11
2022-07-29T07:02:05.831Z,101069.88
2022-07-29T07:04:34.875Z,101067.94
2022-07-29T07:07:03.360Z,101063.52
2022-07-29T07:09:40.608Z,101069.83
2022-07-29T07:12:10.152Z,101075.22
2022-07-29T07:14:39.259Z,101077.12
2022-07-29T07:17:08.467Z,101078.14
2022-07-29T07:19:37.036Z,101075.02
2022-07-29T07:22:05.928Z,101076.48
2022-07-29T07:24:34.614Z,101076.09
2022-07-29T07:27:03.304Z,101075.52
2022-07-29T07:29:31.887Z,101071.95
2022-07-29T07:32:01.339Z,101068.15
2022-07-29T07:34:31.415Z,101069.23
2022-07-29T07:36:59.963Z,101070.02
2022-07-29T07:39:28.789Z,101070.63
2022-07-29T07:41:57.374Z,101065.69
2022-07-29T07:44:26.585Z,101062.69
2022-07-29T07:46:55.159Z,101067.19
2022-07-29T07:49:23.644Z,101066.51
2022-07-29T07:51:53.816Z,101065.56
2022-07-29T07:54:22.319Z,101067.20
2022-07-29T07:56:53.160Z,101070.96
2022-07-29T07:59:22.130Z,101067.30
2022-07-29T08:01:56.111Z,101063.65
2022-07-29T08:04:28.634Z,101065.70
2022-07-29T08:06:59.071Z,101070.77
2022-07-29T08:09:30.522Z,101067.77
2022-07-29T08:12:00.433Z,101068.16
2022-07-29T08:14:29.970Z,101070.13
2022-07-29T08:16:59.013Z,101070.30
2022-07-29T08:19:27.551Z,101068.61
2022-07-29T08:21:56.137Z,101065.05
2022-07-29T08:24:43.531Z,101063.24
2022-07-29T08:27:40.827Z,101062.97
2022-07-29T08:30:01.218Z,101060.87
2022-07-29T08:32:52.626Z,101059.52
2022-07-29T08:35:22.564Z,101059.88
2022-07-29T08:37:51.912Z,101057.49
2022-07-29T08:40:31.838Z,101057.52
2022-07-29T08:43:07.665Z,101060.03
2022-07-29T08:45:54.487Z,101054.40
2022-07-29T08:48:25.917Z,101057.50
2022-07-29T08:50:57.227Z,101050.64
2022-07-29T08:53:28.209Z,101052.11
2022-07-29T08:55:57.674Z,101044.86
2022-07-29T08:58:28.253Z,101044.73
2022-07-29T09:00:57.972Z,101044.95
2022-07-29T09:03:32.854Z,101039.58
2022-07-29T09:06:02.815Z,101029.33
2022-07-29T09:08:33.655Z,101027.98
2022-07-29T09:11:05.410Z,101024.77
2022-07-29T09:13:35.130Z,101028.34
2022-07-29T09:16:09.138Z,101025.05
2022-07-29T09:18:42.803Z,101028.06
2022-07-29T09:21:32.727Z,101026.53
2022-07-29T09:24:08.236Z,101020.73
2022-07-29T09:26:40.344Z,101024.21
2022-07-29T09:29:15.072Z,101017.98
2022-07-29T09:31:46.225Z,101016.34
2022-07-29T09:34:24.776Z,101013.07
2022-07-29T09:36:55.425Z,101015.38
2022-07-29T09:39:47.716Z,101013.61
2022-07-29T09:42:29.518Z,101013.81
2022-07-29T09:44:58.105Z,101008.34
2022-07-29T09:47:43.010Z,101004.72
2022-07-29T09:50:12.075Z,100998.93
2022-07-29T09:52:58.763Z,101001.73
2022-07-29T09:55:27.455Z,101000.93
2022-07-29T09:58:16.314Z,100995.02
2022-07-29T10:00:46.586Z,100994.83
2022-07-29T10:03:16.984Z,100991.60
2022-07-29T10:05:47.396Z,100993.69
2022-07-29T10:08:26.012Z,100990.36
2022-07-29T10:11:14.770Z,100988.63
2022-07-29T10:13:45.213Z,100990.52
2022-07-29T10:16:15.850Z,100987.65
2022-07-29T10:18:45.469Z,100990.34
2022-07-29T10:21:34.489Z,100985.59
2022-07-29T10:24:03.195Z,100978.83
2022-07-29T10:26:32.090Z,100978.18
2022-07-29T10:29:01.611Z,100978.12
2022-07-29T10:31:45.366Z,100974.91
2022-07-29T10:34:28.913Z,100969.16
2022-07-29T10:37:55.103Z,100962.35
2022-07-29T10:41:11.514Z,100962.28
2022-07-29T10:46:41.299Z,100955.89
2022-07-29T10:49:15.629Z,100953.56
2022-07-29T10:52:07.192Z,100955.17
2022-07-29T10:54:39.707Z,100956.33
2022-07-29T10:57:17.409Z,100957.13
2022-07-29T10:59:52.890Z,100948.16
2022-07-29T11:02:41.975Z,100950.50
2022-07-29T11:05:20.326Z,100943.21
2022-07-29T11:11:22.120Z,100940.31
2022-07-29T11:13:53.254Z,100939.29
2022-07-29T11:16:25.016Z,100939.60
2022-07-29T11:19:16.099Z,100934.73
2022-07-29T11:24:50.043Z,100925.11
2022-07-29T11:27:23.485Z,100923.40
2022-07-29T11:30:04.862Z,100918.20
2022-07-29T11:32:40.369Z,100913.58
2022-07-29T11:35:19.326Z,100912.42
2022-07-29T11:38:27.985Z,100913.35
2022-07-29T11:41:22.816Z,100910.77
2022-07-29T11:43:59.070Z,100905.95
2022-07-29T11:46:47.915Z,100901.46
2022-07-29T11:49:32.236Z,100898.45
2022-07-29T11:52:05.670Z,100895.27
2022-07-29T11:54:38.907Z,100889.27
2022-07-29T11:57:36.630Z,100884.05
2022-07-29T12:00:12.715Z,100884.19
2022-07-29T12:02:48.764Z,100880.64
2022-07-29T12:05:35.863Z,100883.57
2022-07-29T12:08:15.039Z,100879.34
2022-07-29T12:10:44.742Z,100875.89
2022-07-29T12:13:14.449Z,100876.95
2022-07-29T12:15:45.960Z,100870.50
2022-07-29T12:18:18.217Z,100871.73
2022-07-29T12:20:48.608Z,100862.38
2022-07-29T12:23:18.998Z,100859.02
2022-07-29T12:25:49.655Z,100853.23
2022-07-29T12:28:26.836Z,100850.65
2022-07-29T12:30:56.315Z,100843.95
2022-07-29T12:33:30.811Z,100842.09
2022-07-29T12:36:17.135Z,100837.39
2022-07-29T12:38:47.413Z,100831.98
2022-07-29T12:41:15.897Z,100830.70
2022-07-29T12:43:55.692Z,100827.80
2022-07-29T12:46:24.270Z,100817.06
2022-07-29T12:48:57.835Z,100813.53
2022-07-29T12:51:32.476Z,100815.35
2022-07-29T12:54:14.503Z,100816.12
2022-07-29T12:56:45.629Z,100811.48
2022-07-29T12:59:15.655Z,100808.61
2022-07-29T13:01:45.470Z,100806.28
2022-07-29T13:04:34.753Z,100799.43
2022-07-29T13:07:09.093Z,100796.46
2022-07-29T13:09:40.201Z,100799.67
2022-07-29T13:12:11.320Z,100795.48
2022-07-29T13:14:44.823Z,100795.73
2022-07-29T13:17:14.699Z,100791.70
2022-07-29T13:19:54.639Z,100790.13
2022-07-29T13:22:26.747Z,100778.14
2022-07-29T13:24:58.507Z,100773.52
2022-07-29T13:27:31.173Z,100777.25
2022-07-29T13:30:01.704Z,100782.77
2022-07-29T13:32:32.044Z,100783.35
2022-07-29T13:35:06.083Z,100783.15
2022-07-29T13:37:39.303Z,100783.09
2022-07-29T13:40:12.956Z,100783.71
2022-07-29T13:42:42.181Z,100787.86
2022-07-29T13:45:12.118Z,100789.02
2022-07-29T13:47:43.582Z,100787.36
2022-07-29T13:50:15.950Z,100780.52
2022-07-29T13:52:44.689Z,100781.79
2022-07-29T13:55:13.375Z,100782.00
2022-07-29T13:57:41.959Z,100783.90
2022-07-29T14:00:11.822Z,100786.26
2022-07-29T14:02:40.775Z,100784.26
2022-07-29T14:05:11.321Z,100782.73
2022-07-29T14:07:40.513Z,100782.83
2022-07-29T14:10:09.586Z,100778.25
2022-07-29T14:12:39.137Z,100777.51
2022-07-29T14:15:08.029Z,100775.49
2022-07-29T14:17:36.432Z,100777.59
2022-07-29T14:20:06.117Z,100774.70
2022-07-29T14:22:37.849Z,100775.16
2022-07-29T14:25:15.035Z,100775.55
2022-07-29T14:27:45.106Z,100773.98
2022-07-29T14:30:13.954Z,100771.52
2022-07-29T14:32:42.633Z,100777.41
2022-07-29T14:35:11.232Z,100773.97
2022-07-29T14:37:40.883Z,100774.55
2022-07-29T14:40:10.782Z,100767.23
2022-07-29T14:42:39.646Z,100759.67
2022-07-29T14:45:10.766Z,100766.81
2022-07-29T14:47:40.191Z,100764.52
2022-07-29T14:50:10.103Z,100765.81
2022-07-29T14:52:39.505Z,100765.36
2022-07-29T14:55:19.716Z,100760.63
2022-07-29T14:57:51.092Z,100756.29
2022-07-29T15:00:19.703Z,100753.48
2022-07-29T15:03:04.198Z,100753.96
2022-07-29T15:05:33.059Z,100751.80
2022-07-29T15:08:01.733Z,100748.74
2022-07-29T15:10:30.831Z,100746.55
2022-07-29T15:13:03.117Z,100746.59
2022-07-29T15:16:31.452Z,100742.89
2022-07-29T15:20:04.284Z,100737.92
2022-07-29T15:23:32.670Z,100733.30
2022-07-29T15:26:20.418Z,100730.19
2022-07-29T15:28:49.076Z,100733.55
2022-07-29T15:32:17.414Z,100729.87
2022-07-29T15:35:09.003Z,100728.81
2022-07-29T15:37:49.004Z,100724.95
2022-07-29T15:40:18.051Z,100724.38
2022-07-29T15:42:46.620Z,100725.52
2022-07-29T15:45:15.122Z,100726.96
2022-07-29T15:47:43.814Z,100724.70
2022-07-29T15:50:17.159Z,100725.22
2022-07-29T15:52:45.997Z,100727.94
2022-07-29T15:55:16.017Z,100731.06
2022-07-29T15:57:44.601Z,100734.21
2022-07-29T16:00:14.207Z,100740.98
2022-07-29T16:02:43.011Z,100747.27
2022-07-29T16:05:11.480Z,100750.83
2022-07-29T16:07:39.977Z,100750.84
2022-07-29T16:10:09.267Z,100757.19
2022-07-29T16:12:37.648Z,100754.35
2022-07-29T16:15:09.957Z,100757.10
2022-07-29T16:17:39.638Z,100759.23
2022-07-29T16:20:08.714Z,100761.56
2022-07-29T16:22:37.162Z,100761.85
2022-07-29T16:25:06.410Z,100768.56
2022-07-29T16:27:37.907Z,100770.89
2022-07-29T16:30:11.157Z,100769.21
2022-07-29T16:32:40.559Z,100771.13
2022-07-29T16:35:10.111Z,100771.25
2022-07-29T16:37:39.575Z,100775.80
2022-07-29T16:40:11.698Z,100777.27
2022-07-29T16:42:48.167Z,100780.14
2022-07-29T16:45:17.472Z,100777.86
2022-07-29T16:47:49.038Z,100781.59
2022-07-29T16:50:18.577Z,100786.10
2022-07-29T16:52:47.059Z,100789.84
2022-07-29T16:55:15.748Z,100788.34
2022-07-29T16:57:44.335Z,100784.02
2022-07-29T17:00:13.696Z,100787.32
2022-07-29T17:02:42.833Z,100785.23
2022-07-29T17:05:12.502Z,100780.11
2022-07-29T17:07:41.211Z,100789.29
2022-07-29T17:10:10.645Z,100784.77
2022-07-29T17:12:41.270Z,100781.58
2022-07-29T17:15:10.862Z,100783.60
2022-07-29T17:17:54.813Z,100782.47
2022-07-29T17:20:26.801Z,100786.71
2022-07-29T17:22:56.411Z,100792.92
2022-07-29T17:25:25.085Z,100794.52
2022-07-29T17:27:57.539Z,100795.02
2022-07-29T17:30:29.940Z,100791.71
2022-07-29T17:32:58.521Z,100797.23
2022-07-29T17:35:46.206Z,100794.25
2022-07-29T17:38:14.944Z,100793.00
2022-07-29T17:40:43.735Z,100798.20
2022-07-29T17:43:12.336Z,100801.30
2022-07-29T17:45:49.362Z,100803.57
2022-07-29T17:48:20.451Z,100804.46
2022-07-29T17:50:49.440Z,100802.00
2022-07-29T17:53:18.248Z,100802.29
2022-07-29T17:55:48.845Z,100804.55
2022-07-29T17:58:17.553Z,100805.15
2022-07-29T18:00:46.111Z,100812.34
2022-07-29T18:03:15.970Z,100809.22
2022-07-29T18:05:44.745Z,100811.20
2022-07-29T18:08:13.500Z,100814.05
2022-07-29T18:10:42.218Z,100817.42
2022-07-29T18:13:14.488Z,100816.86
2022-07-29T18:15:45.277Z,100823.33
2022-07-29T18:18:14.729Z,100830.56
2022-07-29T18:21:51.952Z,100839.24
2022-07-29T18:24:42.016Z,100840.81
2022-07-29T18:27:10.521Z,100840.30
2022-07-29T18:29:39.238Z,100842.02
2022-07-29T18:32:08.076Z,100847.30
2022-07-29T18:34:36.661Z,100854.85
2022-07-29T18:37:05.475Z,100859.80
2022-07-29T18:39:34.107Z,100861.53
2022-07-29T18:42:02.654Z,100867.85
2022-07-29T18:44:31.054Z,100870.02
2022-07-29T18:47:00.534Z,100874.81
2022-07-29T18:49:29.392Z,100875.21
2022-07-29T18:51:58.292Z,100876.17
2022-07-29T18:55:26.541Z,100879.86
2022-07-29T18:58:54.863Z,100885.73
2022-07-29T19:02:23.257Z,100898.94
2022-07-29T19:05:51.637Z,100898.75
2022-07-29T19:09:19.750Z,100910.41
2022-07-29T19:39:15.579Z,100954.83
2022-07-29T19:41:44.483Z,100962.27
2022-07-29T19:44:12.933Z,100968.71
2022-07-29T19:46:45.082Z,100974.82
2022-07-29T19:49:14.041Z,100973.27
2022-07-29T19:51:42.714Z,100979.28
2022-07-29T19:54:11.529Z,100973.83
2022-07-29T19:56:42.176Z,100976.39
2022-07-29T19:59:10.954Z,100978.99
2022-07-29T20:01:41.339Z,100977.20
2022-07-29T20:04:10.045Z,100978.69
2022-07-29T20:06:38.585Z,100980.82
2022-07-29T20:09:07.418Z,100984.37
2022-07-29T20:11:36.890Z,100983.68
2022-07-29T20:14:05.832Z,100980.77
2022-07-29T20:16:34.509Z,100977.98
2022-07-29T20:19:02.990Z,100979.79
2022-07-29T20:21:55.481Z,100980.89
2022-07-29T20:24:24.222Z,100977.91
2022-07-29T20:26:53.010Z,100980.42
2022-07-29T20:29:21.597Z,100986.27
2022-07-29T20:31:52.915Z,100985.09
2022-07-29T20:34:25.774Z,100983.91
2022-07-29T20:36:54.374Z,100980.61
2022-07-29T20:39:23.673Z,100980.15
2022-07-29T20:41:52.237Z,100976.12
2022-07-29T20:44:21.142Z,100977.45
2022-07-29T20:46:49.938Z,100973.73
2022-07-29T20:49:18.600Z,100971.77
2022-07-29T20:51:47.275Z,100968.83
2022-07-29T20:54:15.739Z,100970.59
2022-07-29T20:56:44.312Z,100968.85
2022-07-29T20:59:13.376Z,100969.34
2022-07-29T21:01:41.898Z,100970.06
2022-07-29T21:04:10.571Z,100969.24
2022-07-29T21:06:39.585Z,100969.46
2022-07-29T21:09:08.180Z,100965.52
2022-07-29T21:11:43.228Z,100964.16
2022-07-29T21:14:28.277Z,100965.33
2022-07-29T21:16:57.481Z,100965.65
2022-07-29T21:19:26.576Z,100970.04
2022-07-29T21:21:55.059Z,100969.27
2022-07-29T21:24:23.743Z,100968.75
2022-07-29T21:27:18.203Z,100973.07
2022-07-29T21:29:41.497Z,100971.25
2022-07-29T21:32:10.013Z,100966.71
2022-07-29T21:34:38.674Z,100967.27
2022-07-29T21:37:09.401Z,100969.73
2022-07-29T21:39:38.403Z,100974.70
2022-07-29T21:42:08.909Z,100969.67
2022-07-29T21:44:41.303Z,100968.97
2022-07-29T21:47:11.013Z,100971.92
2022-07-29T21:49:39.703Z,100980.34
2022-07-29T21:52:08.979Z,100978.26
2022-07-29T21:54:37.585Z,100979.08
2022-07-29T21:57:07.379Z,100984.04
2022-07-29T21:59:35.985Z,100987.38
2022-07-29T22:02:05.190Z,100986.18
2022-07-29T22:04:36.055Z,100989.20
2022-07-29T22:07:05.345Z,100986.56
2022-07-29T22:09:34.219Z,100987.86
2022-07-29T22:12:03.007Z,100993.98
2022-07-29T22:14:31.594Z,100996.34
2022-07-29T22:17:00.677Z,100996.70
2022-07-29T22:19:29.969Z,100990.58
2022-07-29T22:21:59.086Z,100984.73
2022-07-29T22:24:27.568Z,100987.98
2022-07-29T22:26:56.363Z,100988.52
2022-07-29T22:29:27.196Z,100990.32
2022-07-29T22:31:55.882Z,100988.96
2022-07-29T22:34:24.803Z,100988.48
2022-07-29T22:37:03.690Z,100989.75
2022-07-29T22:39:32.698Z,100989.54
2022-07-29T22:42:01.655Z,100986.42
2022-07-29T22:44:30.482Z,100985.41
2022-07-29T22:46:59.101Z,100984.75
2022-07-29T22:49:27.802Z,100987.48
2022-07-29T22:51:56.685Z,100981.66
2022-07-29T22:54:25.184Z,100976.25
2022-07-29T22:56:53.917Z,100970.45
2022-07-29T22:59:22.542Z,100971.02
2022-07-29T23:01:51.021Z,100974.41
2022-07-29T23:04:24.102Z,100973.16
2022-07-29T23:06:52.972Z,100974.68
2022-07-29T23:09:21.504Z,100978.16
2022-07-29T23:11:50.097Z,100976.02
2022-07-29T23:14:18.783Z,100973.38
2022-07-29T23:16:47.988Z,100975.09
2022-07-29T23:19:16.630Z,100974.11
2022-07-29T23:21:45.400Z,100976.06
2022-07-29T23:24:14.086Z,100971.06
2022-07-29T23:26:42.625Z,100972.96
2022-07-29T23:29:11.241Z,100968.05
2022-07-29T23:31:41.728Z,100968.02
2022-07-29T23:34:11.803Z,100966.45
2022-07-29T23:36:42.546Z,100968.52
2022-07-29T23:39:12.763Z,100966.20
2022-07-29T23:41:41.858Z,100966.06
2022-07-29T23:44:10.651Z,100963.55
2022-07-29T23:46:39.181Z,100960.42
2022-07-29T23:49:07.840Z,100959.60
2022-07-29T23:51:36.506Z,100955.16
2022-07-29T23:54:05.091Z,100948.59
2022-07-29T23:56:33.972Z,100950.23
2022-07-29T23:59:04.020Z,100947.27
